Airfield :
LOGIN :

Register | Disclaimer

   EN    FR    IT 

 










Legend :    VFR   Marginal VFR   IFR   Intensive IFR   Very Intensive IFR
Visi :
Ceiling :
>= 8 km
>= 3000ft
5 to 8 km
1000 to 3000 ft
1500m to 5 km
500 to 1000 ft
800 to 1500m
200 to 500 ft
< 800m
< 200 ft
Symbols :   Thunderstorms  Fog  Heavy snow  Heavy precipitations  Wind > 20 kt
SIGMETs :     Misc.  Thunderstorms  Icing  Turbulence  Mountain Waves  Volcanic Ashes






- Airport Elevation : 32 ft
- IATA code : LKZ


EGUL - RAF Lakenheath

CURRENT METAR :
  • 232037Z AUTO 28003KT 9000 -DZ BR BKN006 BKN070 11/11 A2973 RMK AO2 RAE00DZB00E06RAB06E16DZB16E18DZB37 CIG 006V070 BKN006 V SCT SLP071 $

EXPIRED METARs :
  • 232018Z AUTO 04003KT 9000 BR FEW006 SCT075 11/11 A2972 RMK AO2 RAE00DZB00E06RAB06E16DZB16E18 SLP068 $
  • 232011Z AUTO 04004KT 9000 -RA BR FEW006 SCT075 11/11 A2972 RMK AO2 RAE00DZB00E06RAB06 SLP068 $
  • 231956Z AUTO 03004KT 9999 -RA BKN075 11/11 A2973 RMK AO2 RAE17RAB32E45DZB45E49RAB49 SLP071 P0001 T01130107 $
  • 231932Z AUTO 07004KT 9999 -RA FEW080 11/11 A2975 RMK AO2 RAE17RAB32 SLP078 $
  • 231917Z AUTO 05003KT 9999 CLR 11/10 A2976 RMK AO2 RAE17 SLP081 $
  • 231856Z AUTO 06003KT 9999 -RA SCT080 11/11 A2977 RMK AO2 RAE06DZB06E09DZB24E29RAB29 SLP085 P0001 T01140105 $
  • 231824Z AUTO 06003KT 9999 -DZ OVC080 12/10 A2978 RMK AO2 RAE06DZB06E09DZB24 SLP088 $
  • 231809Z AUTO 07004KT 9999 BKN085 12/10 A2978 RMK AO2 RAE06DZB06E09 SLP088 $

TAF TAF EGUL
Valid from the 23 at 13:00 until the 24 at 19:00 UTC


231300Z 2313/2419 10012KT 9999 FEW018 SCT100 QNH2981INS
TEMPO 2316/2320 9000 -SHRA BKN018
BECMG 2321/2322 10006KT 8000 -SHRA BR BKN010 OVC050 QNH2974INS
BECMG 2400/2401 27006KT 3200 BR OVC007 QNH2968INS
BECMG 2403/2404 25006KT 3200 BR OVC003 QNH2965INS
BECMG 2408/2409 18006KT 3200 BR OVC009 QNH2963INS
BECMG 2410/2411 26006KT 8000 -RA OVC010 QNH2965INS TX14/2314Z TN11/2401Z



MET'MAP, your aeronautical weather chart ! - Copyright ORBIFLY December 2007 - Disclaimer

ORBIFLY MET'MAP TEAM :

Programming & Development : Alexandra Zaïnal
Concept & Development : Baudouin d'Aumeries
Co-Development & Prog : Marc-Olivier Méhu
Technical & hardware support : Manuel Goepfert

Contact : metmap@orbifly.com




SOURCES & CREDITS :

   NOAA